.
WxDataArchive / Data Records for 2010-12-10
2010-12-09 December 2010 2010-12-11

Data Records for Friday, 10 December 2010

Time	Temp	Chill	HIndex	Humid	Dewpt	 Wind 	HiWind	WindDir	Rain 	Barom 
-----	----	-----	------	-----	-----	------	------	-------	-----	----- 
00:00	26.7	26.7	26.7	74	19.5	2	7	90	0.00	30.109 
00:05	26.4	26.4	26.4	77	20.2	1	3	112	0.00	30.109 
00:10	26.3	26.3	26.3	78	20.4	1	4	68	0.00	30.109 
00:15	26.1	26.1	26.1	79	20.5	1	4	68	0.00	30.102 
00:20	26.0	26.0	26.0	80	20.7	1	4	90	0.00	30.102 
00:25	26.0	26.0	26.0	81	21.0	1	3	45	0.00	30.102 
00:30	26.0	26.0	26.0	81	21.0	1	3	45	0.00	30.098 
00:35	26.0	26.0	26.0	82	21.3	1	5	68	0.00	30.098 
00:40	26.0	26.0	26.0	82	21.3	1	3	112	0.00	30.098 
00:45	26.1	26.1	26.1	82	21.4	1	3	135	0.00	30.084 
00:50	26.1	26.1	26.1	83	21.7	1	2	90	0.00	30.084 
00:55	26.3	26.3	26.3	83	21.9	0	2	112	0.00	30.084 
01:00	26.3	26.3	26.3	83	21.9	1	6	270	0.00	30.083 
01:05	26.4	26.4	26.4	84	22.2	2	4	90	0.00	30.083 
01:10	26.4	26.4	26.4	84	22.2	1	5	112	0.00	30.083 
01:15	26.6	26.6	26.6	84	22.4	1	5	112	0.00	30.067 
01:20	26.7	26.7	26.7	84	22.5	0	3	90	0.00	30.067 
01:25	26.7	26.7	26.7	84	22.5	0	3	90	0.00	30.067 
01:30	26.9	26.9	26.9	84	22.7	0	5	90	0.00	30.066 
01:35	27.0	27.0	27.0	85	23.1	0	2	248	0.00	30.066 
01:40	27.0	27.0	27.0	85	23.1	0	2	270	0.00	30.066 
01:45	27.0	27.0	27.0	86	23.4	1	3	270	0.00	30.063 
01:50	27.0	27.0	27.0	87	23.7	1	3	90	0.00	30.063 
01:55	27.0	27.0	27.0	87	23.7	0	3	90	0.00	30.063 
02:00	27.0	27.0	27.0	88	23.9	0	2	270	0.00	30.058 
02:05	27.0	27.0	27.0	88	23.9	1	4	270	0.00	30.058 
02:10	26.9	26.9	26.9	89	24.1	0	2	68	0.00	30.058 
02:15	26.9	26.9	26.9	89	24.1	0	4	112	0.00	30.051 
02:20	26.9	26.9	26.9	89	24.1	0	3	112	0.00	30.051 
02:25	26.9	26.9	26.9	90	24.4	0	2	292	0.00	30.051 
02:30	26.9	26.9	26.9	90	24.4	1	5	90	0.00	30.049 
02:35	26.9	26.9	26.9	90	24.4	0	2	90	0.00	30.049 
02:40	27.0	27.0	27.0	90	24.5	1	3	90	0.00	30.049 
02:45	27.0	27.0	27.0	90	24.5	1	3	112	0.00	30.045 
02:50	27.0	27.0	27.0	91	24.7	0	2	90	0.00	30.045 
02:55	27.0	27.0	27.0	91	24.7	1	3	90	0.00	30.045 
03:00	27.2	27.2	27.2	91	24.9	0	2	135	0.00	30.043 
03:05	27.2	27.2	27.2	91	24.9	1	3	112	0.00	30.043 
03:10	27.2	27.2	27.2	91	24.9	0	2	112	0.00	30.043 
03:15	27.2	27.2	27.2	91	24.9	0	3	112	0.00	30.037 
03:20	27.3	27.3	27.3	91	25.0	0	1	112	0.00	30.037 
03:25	27.3	27.3	27.3	91	25.0	1	4	90	0.00	30.037 
03:30	27.3	27.3	27.3	91	25.0	0	2	90	0.00	30.033 
03:35	27.3	27.3	27.3	92	25.3	1	4	90	0.00	30.033 
03:40	27.5	27.5	27.5	92	25.5	0	2	90	0.00	30.033 
03:45	27.5	27.5	27.5	92	25.5	0	3	90	0.00	30.028 
03:50	27.5	27.5	27.5	92	25.5	0	1	90	0.00	30.028 
03:55	27.5	27.5	27.5	92	25.5	0	2	90	0.00	30.028 
04:00	27.6	27.6	27.6	92	25.6	0	3	90	0.00	30.018 
04:05	27.6	27.6	27.6	92	25.6	0	3	90	0.00	30.018 
04:10	27.8	27.8	27.8	92	25.8	0	2	90	0.00	30.018 
04:15	27.9	27.9	27.9	92	25.9	0	1	90	0.00	30.015 
04:20	27.9	27.9	27.9	92	25.9	0	2	90	0.00	30.015 
04:25	28.1	28.1	28.1	92	26.1	0	3	90	0.00	30.015 
04:30	28.2	28.2	28.2	92	26.2	0	2	270	0.00	30.013 
04:35	28.2	28.2	28.2	92	26.2	0	2	315	0.00	30.013 
04:40	28.4	28.4	28.4	92	26.4	0	2	248	0.00	30.013 
04:45	28.4	28.4	28.4	92	26.4	1	3	248	0.00	30.006 
04:50	28.5	28.5	28.5	92	26.5	1	5	248	0.00	30.006 
04:55	28.5	28.5	28.5	92	26.5	0	3	248	0.00	30.006 
05:00	28.5	28.5	28.5	92	26.5	0	2	248	0.00	30.003 
05:05	28.5	28.5	28.5	92	26.5	0	2	248	0.00	30.003 
05:10	28.7	28.7	28.7	92	26.7	0	1	248	0.00	30.003 
05:15	28.7	28.7	28.7	92	26.7	1	2	248	0.00	30.000 
05:20	28.7	28.7	28.7	92	26.7	0	3	248	0.00	30.000 
05:25	28.8	28.8	28.8	92	26.8	0	2	248	0.00	30.000 
05:30	28.8	28.8	28.8	92	26.8	1	3	225	0.00	29.991 
05:35	29.0	29.0	29.0	92	27.0	0	3	45	0.00	29.991 
05:40	29.0	29.0	29.0	92	27.0	1	3	248	0.00	29.991 
05:45	29.0	29.0	29.0	92	27.0	0	1	248	0.00	29.993 
05:50	29.1	29.1	29.1	92	27.1	0	2	248	0.00	29.993 
05:55	29.1	29.1	29.1	92	27.1	0	1	248	0.00	29.993 
06:00	29.1	29.1	29.1	91	26.8	0	2	248	0.00	29.990 
06:05	29.3	29.3	29.3	91	27.0	1	3	248	0.00	29.990 
06:10	29.3	29.3	29.3	91	27.0	0	3	248	0.00	29.990 
06:15	29.4	29.4	29.4	91	27.1	0	2	248	0.00	29.992 
06:20	29.4	29.4	29.4	90	26.8	1	5	248	0.00	29.992 
06:25	29.5	29.5	29.5	90	26.9	1	3	248	0.00	29.992 
06:30	29.5	29.5	29.5	89	26.7	0	2	248	0.00	29.988 
06:35	29.7	29.7	29.7	89	26.9	0	2	248	0.00	29.988 
06:40	29.7	29.7	29.7	88	26.6	0	4	248	0.00	29.988 
06:45	29.8	29.8	29.8	88	26.7	1	3	248	0.00	29.987 
06:50	29.8	29.8	29.8	87	26.4	1	3	248	0.00	29.987 
06:55	30.0	30.0	30.0	87	26.6	0	2	248	0.00	29.987 
07:00	30.0	30.0	30.0	86	26.3	1	3	248	0.00	29.985 
07:05	30.0	30.0	30.0	85	26.0	1	3	248	0.00	29.985 
07:10	30.1	30.1	30.1	85	26.1	1	3	225	0.00	29.985 
07:15	30.3	30.3	30.3	84	26.1	1	4	225	0.00	29.985 
07:20	30.3	30.3	30.3	83	25.8	1	3	248	0.00	29.985 
07:25	30.4	30.4	30.4	82	25.6	1	5	225	0.00	29.985 
07:30	30.6	30.6	30.6	81	25.5	1	3	292	0.00	29.984 
07:35	30.7	30.7	30.7	81	25.6	1	3	225	0.00	29.984 
07:40	30.9	30.9	30.9	80	25.5	1	5	225	0.00	29.984 
07:45	31.0	31.0	31.0	79	25.3	1	4	248	0.00	29.982 
07:50	31.0	31.0	31.0	78	25.0	1	6	248	0.00	29.982 
07:55	31.2	31.2	31.2	77	24.8	1	4	248	0.00	29.982 
08:00	31.2	31.2	31.2	77	24.8	1	3	248	0.00	29.983 
08:05	31.3	31.3	31.3	76	24.6	0	3	248	0.00	29.983 
08:10	31.3	31.3	31.3	75	24.3	1	3	248	0.00	29.983 
08:15	31.5	31.5	31.5	75	24.5	1	3	225	0.00	29.988 
08:20	31.6	31.6	31.6	75	24.6	0	2	248	0.00	29.988 
08:25	31.8	31.8	31.8	74	24.5	1	6	225	0.00	29.988 
08:30	31.9	31.9	31.9	73	24.2	2	6	248	0.00	29.999 
08:35	32.1	32.1	32.1	73	24.4	2	5	248	0.00	29.999 
08:40	32.2	32.2	32.2	72	24.2	1	6	248	0.00	29.999 
08:45	32.2	32.2	32.2	72	24.2	1	3	248	0.00	29.998 
08:50	32.2	32.2	32.2	71	23.9	2	6	248	0.00	29.998 
08:55	32.1	32.1	32.1	71	23.8	2	4	248	0.00	29.998 
09:00	32.2	32.2	32.2	71	23.9	2	6	248	0.00	30.000 
09:05	32.4	32.4	32.4	71	24.1	2	6	248	0.00	30.000 
09:10	32.5	32.5	32.5	70	23.8	2	4	248	0.00	30.000 
09:15	32.8	32.8	32.8	70	24.1	2	7	248	0.00	30.004 
09:20	32.9	32.9	32.9	70	24.2	3	9	248	0.00	30.004 
09:25	33.1	33.1	33.1	69	24.1	1	6	225	0.00	30.004 
09:30	33.2	33.2	33.2	69	24.2	2	7	248	0.00	30.007 
09:35	33.4	33.4	33.4	69	24.3	3	8	248	0.00	30.007 
09:40	33.4	33.4	33.4	68	24.0	3	6	248	0.00	30.007 
09:45	33.5	33.5	33.5	68	24.1	2	9	270	0.00	30.011 
09:50	33.5	33.5	33.5	68	24.1	2	4	248	0.00	30.011 
09:55	33.7	33.7	33.7	68	24.3	3	6	248	0.00	30.011 
10:00	33.7	33.7	33.7	68	24.3	2	7	225	0.00	30.012 
10:05	33.8	33.8	33.8	67	24.0	2	5	225	0.00	30.012 
10:10	33.8	33.8	33.8	67	24.0	3	7	248	0.00	30.012 
10:15	34.0	34.0	34.0	67	24.2	2	6	270	0.00	30.011 
10:20	34.1	34.1	34.1	67	24.3	3	6	248	0.00	30.011 
10:25	34.3	34.3	34.3	67	24.5	2	7	248	0.00	30.011 
10:30	34.4	34.4	34.4	67	24.6	2	5	225	0.00	30.018 
10:35	34.6	34.6	34.6	66	24.4	3	7	248	0.00	30.018 
10:40	34.7	34.7	34.7	66	24.5	2	7	248	0.00	30.018 
10:45	34.9	34.9	34.9	66	24.7	3	6	248	0.00	30.018 
10:50	34.9	34.9	34.9	65	24.3	3	10	248	0.00	30.018 
10:55	35.0	35.0	35.0	66	24.8	2	9	225	0.00	30.018 
11:00	35.0	35.0	35.0	65	24.4	3	9	248	0.00	30.013 
11:05	35.2	35.2	35.2	65	24.6	3	7	248	0.00	30.013 
11:10	35.2	35.2	35.2	65	24.6	3	7	248	0.00	30.013 
11:15	35.2	35.2	35.2	65	24.6	3	11	248	0.00	30.014 
11:20	35.3	35.3	35.3	66	25.1	3	10	225	0.00	30.014 
11:25	35.5	32.1	35.5	65	24.9	4	10	248	0.00	30.014 
11:30	35.5	35.5	35.5	66	25.3	3	9	248	0.00	30.007 
11:35	35.6	35.6	35.6	66	25.4	3	8	248	0.00	30.007 
11:40	35.9	35.9	35.9	66	25.7	2	10	248	0.00	30.007 
11:45	36.0	36.0	36.0	66	25.8	2	8	248	0.00	30.006 
11:50	36.2	36.2	36.2	66	26.0	3	9	248	0.01	30.006 
11:55	36.2	32.9	36.2	66	26.0	4	10	248	0.00	30.006 
12:00	36.2	36.2	36.2	66	26.0	3	7	248	0.00	30.008 
12:05	36.5	36.5	36.5	66	26.2	3	6	248	0.01	30.008 
12:10	36.5	36.5	36.5	66	26.2	3	9	270	0.00	30.008 
12:15	36.6	36.6	36.6	66	26.3	2	9	225	0.00	30.003 
12:20	36.8	33.6	36.8	66	26.5	4	11	248	0.00	30.003 
12:25	36.5	36.5	36.5	68	27.0	2	7	248	0.00	30.003 
12:30	36.8	36.8	36.8	69	27.6	2	4	248	0.00	30.006 
12:35	36.8	36.8	36.8	68	27.2	3	10	248	0.00	30.006 
12:40	36.8	36.8	36.8	68	27.2	3	9	270	0.00	30.006 
12:45	36.8	36.8	36.8	68	27.2	3	8	248	0.00	30.005 
12:50	36.8	33.6	36.8	67	26.9	4	10	248	0.01	30.005 
12:55	36.9	33.7	36.9	67	27.0	4	11	270	0.00	30.005 
13:00	37.2	37.2	37.2	67	27.3	3	7	248	0.00	30.005 
13:05	37.3	34.2	37.3	67	27.4	4	11	248	0.00	30.005 
13:10	37.3	33.3	37.3	67	27.4	5	10	248	0.00	30.005 
13:15	37.3	37.3	37.3	67	27.4	3	9	248	0.00	30.006 
13:20	37.6	37.6	37.6	67	27.7	2	6	248	0.00	30.006 
13:25	37.8	37.8	37.8	66	27.5	3	7	225	0.00	30.006 
13:30	37.9	37.9	37.9	66	27.6	3	7	248	0.01	30.008 
13:35	37.9	37.9	37.9	66	27.6	3	7	248	0.00	30.008 
13:40	38.0	38.0	38.0	66	27.7	2	6	248	0.00	30.008 
13:45	38.0	38.0	38.0	66	27.7	3	7	248	0.00	30.006 
13:50	38.2	38.2	38.2	66	27.9	3	9	248	0.00	30.006 
13:55	38.3	38.3	38.3	66	28.0	2	5	248	0.00	30.006 
14:00	38.5	38.5	38.5	66	28.1	2	7	248	0.00	30.007 
14:05	38.5	38.5	38.5	65	27.8	3	7	248	0.00	30.007 
14:10	38.6	38.6	38.6	65	27.9	2	7	248	0.01	30.007 
14:15	38.6	38.6	38.6	65	27.9	2	5	248	0.00	30.008 
14:20	38.8	38.8	38.8	66	28.4	2	6	248	0.00	30.008 
14:25	38.8	38.8	38.8	65	28.1	3	6	248	0.00	30.008 
14:30	38.9	38.9	38.9	66	28.5	2	5	248	0.00	30.005 
14:35	38.9	38.9	38.9	65	28.2	2	6	248	0.00	30.005 
14:40	38.9	38.9	38.9	65	28.2	3	7	248	0.01	30.005 
14:45	39.1	39.1	39.1	65	28.3	3	7	248	0.00	30.007 
14:50	38.9	38.9	38.9	66	28.5	2	10	248	0.00	30.007 
14:55	39.1	39.1	39.1	66	28.7	2	4	248	0.00	30.007 
15:00	39.1	39.1	39.1	66	28.7	3	6	248	0.00	30.012 
15:05	38.9	38.9	38.9	66	28.5	3	7	248	0.00	30.012 
15:10	38.8	38.8	38.8	66	28.4	3	7	248	0.01	30.012 
15:15	38.8	38.8	38.8	67	28.8	2	5	248	0.00	30.019 
15:20	38.8	38.8	38.8	66	28.4	3	9	248	0.00	30.019 
15:25	38.9	38.9	38.9	67	28.9	2	4	225	0.00	30.019 
15:30	39.2	39.2	39.2	67	29.2	1	5	225	0.00	30.024 
15:35	39.2	39.2	39.2	66	28.8	2	6	248	0.00	30.024 
15:40	39.1	39.1	39.1	66	28.7	3	9	248	0.01	30.024 
15:45	39.1	39.1	39.1	66	28.7	2	6	248	0.00	30.023 
15:50	38.8	38.8	38.8	67	28.8	3	10	248	0.00	30.023 
15:55	38.5	38.5	38.5	67	28.5	2	6	248	0.00	30.023 
16:00	38.2	38.2	38.2	68	28.6	2	6	225	0.00	30.028 
16:05	38.0	38.0	38.0	68	28.4	2	5	225	0.01	30.028 
16:10	37.9	37.9	37.9	69	28.7	2	4	248	0.00	30.028 
16:15	37.8	37.8	37.8	69	28.6	2	5	270	0.00	30.032 
16:20	37.6	37.6	37.6	69	28.4	1	5	248	0.00	30.032 
16:25	37.5	37.5	37.5	70	28.6	2	4	248	0.00	30.032 
16:30	37.3	37.3	37.3	70	28.4	1	3	248	0.00	30.034 
16:35	37.0	37.0	37.0	71	28.5	1	4	248	0.00	30.034 
16:40	36.8	36.8	36.8	71	28.3	0	2	248	0.00	30.034 
16:45	36.5	36.5	36.5	72	28.3	0	2	248	0.00	30.036 
16:50	36.0	36.0	36.0	73	28.2	0	2	248	0.00	30.036 
16:55	35.8	35.8	35.8	73	28.0	0	2	248	0.00	30.036 
17:00	35.3	35.3	35.3	74	27.9	1	3	248	0.00	30.039 
17:05	35.2	35.2	35.2	75	28.1	0	3	248	0.00	30.039 
17:10	35.0	35.0	35.0	76	28.2	1	4	225	0.00	30.039 
17:15	34.9	34.9	34.9	76	28.1	0	3	225	0.00	30.042 
17:20	34.7	34.7	34.7	77	28.2	1	3	225	0.00	30.042 
17:25	34.7	34.7	34.7	77	28.2	1	4	225	0.00	30.042 
17:30	34.6	34.6	34.6	77	28.1	1	3	225	0.00	30.046 
17:35	34.4	34.4	34.4	78	28.3	1	3	270	0.00	30.046 
17:40	34.3	34.3	34.3	78	28.2	1	4	248	0.00	30.046 
17:45	34.1	34.1	34.1	79	28.3	0	2	248	0.00	30.054 
17:50	34.1	34.1	34.1	79	28.3	1	5	248	0.00	30.054 
17:55	34.0	34.0	34.0	79	28.2	0	4	248	0.00	30.054 
18:00	33.8	33.8	33.8	79	28.0	1	4	248	0.00	30.056 
18:05	33.8	33.8	33.8	80	28.3	1	4	248	0.00	30.056 
18:10	34.0	34.0	34.0	80	28.5	2	7	248	0.00	30.056 
18:15	34.0	34.0	34.0	80	28.5	1	6	225	0.00	30.057 
18:20	34.0	34.0	34.0	80	28.5	2	5	248	0.00	30.057 
18:25	34.0	34.0	34.0	80	28.5	2	6	248	0.00	30.057 
18:30	34.0	34.0	34.0	80	28.5	2	5	248	0.00	30.062 
18:35	34.0	34.0	34.0	80	28.5	1	5	248	0.00	30.062 
18:40	33.8	33.8	33.8	80	28.3	1	4	248	0.00	30.062 
18:45	33.8	33.8	33.8	80	28.3	1	6	248	0.00	30.065 
18:50	33.8	33.8	33.8	80	28.3	1	5	225	0.00	30.065 
18:55	34.0	34.0	34.0	80	28.5	1	4	248	0.00	30.065 
19:00	34.0	34.0	34.0	80	28.5	1	5	225	0.00	30.066 
19:05	34.0	34.0	34.0	80	28.5	0	3	248	0.00	30.066 
19:10	34.0	34.0	34.0	80	28.5	1	5	248	0.00	30.066 
19:15	34.0	34.0	34.0	80	28.5	1	3	248	0.00	30.065 
19:20	34.0	34.0	34.0	80	28.5	0	3	248	0.00	30.065 
19:25	33.8	33.8	33.8	81	28.6	1	5	248	0.00	30.065 
19:30	34.0	34.0	34.0	81	28.8	1	4	248	0.00	30.070 
19:35	34.1	34.1	34.1	80	28.6	1	3	248	0.00	30.070 
19:40	34.1	34.1	34.1	80	28.6	1	5	248	0.00	30.070 
19:45	34.1	34.1	34.1	80	28.6	1	3	248	0.00	30.075 
19:50	34.0	34.0	34.0	80	28.5	0	3	248	0.00	30.075 
19:55	34.0	34.0	34.0	80	28.5	0	1	248	0.00	30.075 
20:00	33.8	33.8	33.8	80	28.3	0	2	248	0.00	30.078 
20:05	33.7	33.7	33.7	81	28.5	0	1	248	0.00	30.078 
20:10	33.5	33.5	33.5	81	28.3	0	2	248	0.00	30.078 
20:15	33.4	33.4	33.4	81	28.2	0	1	248	0.00	30.082 
20:20	33.2	33.2	33.2	81	28.0	0	1	248	0.00	30.082 
20:25	32.8	32.8	32.8	81	27.6	0	0	---	0.00	30.082 
20:30	32.4	32.4	32.4	81	27.2	0	0	---	0.00	30.078 
20:35	31.9	31.9	31.9	81	26.7	0	1	248	0.00	30.078 
20:40	31.6	31.6	31.6	82	26.7	0	1	248	0.00	30.078 
20:45	31.5	31.5	31.5	83	26.9	0	1	248	0.00	30.083 
20:50	31.5	31.5	31.5	84	27.2	0	0	---	0.00	30.083 
20:55	31.3	31.3	31.3	84	27.0	0	0	---	0.00	30.083 
21:00	31.2	31.2	31.2	84	26.9	0	1	248	0.00	30.084 
21:05	31.2	31.2	31.2	84	26.9	0	1	248	0.00	30.084 
21:10	31.0	31.0	31.0	84	26.7	0	1	248	0.00	30.084 
21:15	30.7	30.7	30.7	85	26.7	0	0	---	0.00	30.083 
21:20	30.6	30.6	30.6	85	26.6	0	0	---	0.00	30.083 
21:25	30.3	30.3	30.3	85	26.3	0	0	---	0.00	30.083 
21:30	30.0	30.0	30.0	85	26.0	0	0	---	0.00	30.086 
21:35	29.7	29.7	29.7	85	25.8	0	0	---	0.00	30.086 
21:40	29.4	29.4	29.4	86	25.7	0	0	---	0.00	30.086 
21:45	29.1	29.1	29.1	86	25.4	0	0	---	0.00	30.089 
21:50	28.8	28.8	28.8	86	25.2	0	0	---	0.00	30.089 
21:55	28.7	28.7	28.7	86	25.1	0	0	---	0.00	30.089 
22:00	28.4	28.4	28.4	87	25.0	0	0	---	0.00	30.083 
22:05	28.4	28.4	28.4	88	25.3	0	0	---	0.00	30.083 
22:10	28.4	28.4	28.4	88	25.3	0	0	---	0.00	30.083 
22:15	28.2	28.2	28.2	88	25.1	0	0	---	0.00	30.083 
22:20	28.1	28.1	28.1	88	25.0	0	0	---	0.00	30.083 
22:25	27.8	27.8	27.8	88	24.7	0	0	---	0.00	30.083 
22:30	27.5	27.5	27.5	88	24.4	0	0	---	0.00	30.086 
22:35	27.2	27.2	27.2	88	24.1	0	0	---	0.00	30.086 
22:40	27.0	27.0	27.0	89	24.2	0	0	---	0.00	30.086 
22:45	26.9	26.9	26.9	89	24.1	0	0	---	0.00	30.089 
22:50	26.6	26.6	26.6	89	23.8	0	0	---	0.00	30.089 
22:55	26.4	26.4	26.4	89	23.6	0	0	---	0.00	30.089 
23:00	26.3	26.3	26.3	89	23.5	0	0	---	0.00	30.089 
23:05	26.1	26.1	26.1	89	23.3	0	0	---	0.00	30.089 
23:10	26.0	26.0	26.0	89	23.2	0	0	---	0.00	30.089 
23:15	25.8	25.8	25.8	90	23.3	0	0	---	0.00	30.088 
23:20	25.7	25.7	25.7	90	23.2	0	0	---	0.00	30.088 
23:25	25.6	25.6	25.6	90	23.1	0	0	---	0.00	30.088 
23:30	25.3	25.3	25.3	90	22.8	0	0	---	0.00	30.090 
23:35	25.1	25.1	25.1	90	22.6	0	0	---	0.00	30.090 
23:40	25.0	25.0	25.0	90	22.5	0	0	---	0.00	30.090 
23:45	24.8	24.8	24.8	90	22.3	0	0	---	0.00	30.090 
23:50	24.5	24.5	24.5	90	22.0	0	0	---	0.00	30.090 
23:55	24.5	24.5	24.5	90	22.0	0	0	---	0.00	30.090 

CoCoRaHS
IN-AL-39
A2 Web Hosting
Creative Commons License
GoDaddy
search engine by freefind advanced

loaded 2018-11-19 10:21:14 • last modified 2010-11-18 10:43:29
Privacy PolicyDisclaimer
• wx.awcolley.com is powered by PmWiki v.2002016 •
• all content (unless otherwise noted) © 2018 A W Colley